Time;durP1;ratioP1;P1;durP2;ratioP2;P2;SDS_P1;SDS_P2;PMS_P1;PMS_P2;Temp;Humidity;BMP_temperature;BMP_pressure;BME280_temperature;BME280_humidity;BME280_pressure;Samples;Min_cycle;Max_cycle;Signal;HPM_P1;HPM_P2
2023/08/15 00:01:39;;;;;;;193.73;70.80;;;;;;;;;;5070314;28;20447;-55
2023/08/15 00:04:05;;;;;;;195.27;69.77;;;;;;;;;;5065998;28;20491;-52
2023/08/15 00:06:31;;;;;;;196.73;71.13;;;;;;;;;;5070847;28;20409;-52
2023/08/15 00:08:58;;;;;;;197.40;73.07;;;;;;;;;;5070776;28;20417;-52
2023/08/15 00:11:24;;;;;;;198.93;73.57;;;;;;;;;;5070544;28;20930;-54
2023/08/15 00:13:53;;;;;;;194.57;69.03;;;;;;;;;;5070824;28;20416;-56
2023/08/15 00:16:19;;;;;;;191.87;69.43;;;;;;;;;;5073389;28;20422;-52
2023/08/15 00:18:45;;;;;;;187.67;64.20;;;;;;;;;;5071191;28;20483;-52
2023/08/15 00:21:12;;;;;;;189.27;68.97;;;;;;;;;;5077127;28;20467;-53
2023/08/15 00:23:38;;;;;;;189.40;67.07;;;;;;;;;;5076938;28;20414;-52
2023/08/15 00:26:04;;;;;;;190.77;70.27;;;;;;;;;;5074229;28;20470;-54
2023/08/15 00:28:30;;;;;;;187.70;66.37;;;;;;;;;;5074045;28;20420;-52
2023/08/15 00:30:56;;;;;;;189.00;67.17;;;;;;;;;;5073685;28;20428;-53
2023/08/15 00:33:22;;;;;;;191.30;70.10;;;;;;;;;;5074079;28;20400;-54
2023/08/15 00:35:48;;;;;;;191.47;69.63;;;;;;;;;;5073923;28;20920;-55
2023/08/15 00:38:14;;;;;;;189.40;67.00;;;;;;;;;;5073993;28;20417;-51
2023/08/15 00:40:40;;;;;;;189.13;64.73;;;;;;;;;;5073751;28;20409;-52
2023/08/15 00:43:06;;;;;;;188.47;67.97;;;;;;;;;;5073880;28;20472;-52
2023/08/15 00:45:33;;;;;;;191.47;71.77;;;;;;;;;;5073650;28;20425;-52
2023/08/15 00:47:59;;;;;;;191.10;70.97;;;;;;;;;;5073738;28;20777;-54
2023/08/15 00:50:25;;;;;;;188.30;68.17;;;;;;;;;;5073397;28;20443;-55
2023/08/15 00:52:52;;;;;;;189.57;68.57;;;;;;;;;;5073570;28;20436;-54
2023/08/15 00:55:18;;;;;;;188.40;69.53;;;;;;;;;;5073585;28;20796;-55
2023/08/15 00:57:44;;;;;;;188.73;68.40;;;;;;;;;;5073562;28;20418;-54
2023/08/15 01:00:11;;;;;;;187.67;67.73;;;;;;;;;;5073110;28;20451;-52
2023/08/15 01:02:37;;;;;;;187.53;66.13;;;;;;;;;;5072990;28;20503;-55
2023/08/15 01:05:04;;;;;;;189.77;69.37;;;;;;;;;;5073073;28;20422;-55
2023/08/15 01:07:30;;;;;;;191.07;69.60;;;;;;;;;;5072717;28;20427;-55
2023/08/15 01:09:56;;;;;;;189.63;69.30;;;;;;;;;;5073443;28;20864;-52
2023/08/15 01:12:44;;;;;;;187.47;66.53;;;;;;;;;;5078516;28;20427;-52
2023/08/15 01:15:13;;;;;;;188.20;67.17;;;;;;;;;;5073338;28;20421;-52
2023/08/15 01:17:55;;;;;;;186.43;67.97;;;;;;;;;;5069187;28;20794;-56
2023/08/15 01:20:26;;;;;;;187.73;68.13;;;;;;;;;;5072975;28;20781;-52
2023/08/15 01:22:53;;;;;;;188.17;67.30;;;;;;;;;;5072957;28;20456;-53
2023/08/15 01:25:19;;;;;;;188.37;68.43;;;;;;;;;;5072998;28;20409;-52
2023/08/15 01:27:45;;;;;;;189.37;67.87;;;;;;;;;;5072872;28;20415;-52
2023/08/15 01:30:14;;;;;;;186.87;67.33;;;;;;;;;;5072814;28;20413;-52
2023/08/15 01:32:46;;;;;;;189.80;69.00;;;;;;;;;;5064685;28;20511;-52
2023/08/15 01:35:14;;;;;;;188.00;68.03;;;;;;;;;;5072936;28;20400;-52
2023/08/15 01:37:43;;;;;;;189.40;68.37;;;;;;;;;;5071667;28;20420;-52
2023/08/15 01:40:11;;;;;;;189.37;68.27;;;;;;;;;;5072501;28;20584;-52
2023/08/15 01:42:40;;;;;;;188.80;67.30;;;;;;;;;;5072521;28;20464;-52
2023/08/15 01:45:06;;;;;;;187.03;65.67;;;;;;;;;;5072662;28;20499;-51
2023/08/15 01:47:32;;;;;;;191.60;68.60;;;;;;;;;;5072566;28;20493;-55
2023/08/15 01:49:58;;;;;;;192.77;67.93;;;;;;;;;;5072513;28;20421;-55
2023/08/15 01:52:24;;;;;;;194.20;70.77;;;;;;;;;;5072307;28;20802;-52
2023/08/15 01:54:50;;;;;;;193.50;70.40;;;;;;;;;;5072452;28;20412;-52
2023/08/15 01:57:16;;;;;;;194.77;70.53;;;;;;;;;;5072342;28;20470;-52
2023/08/15 01:59:43;;;;;;;196.27;70.17;;;;;;;;;;5072178;28;20413;-52
2023/08/15 02:02:10;;;;;;;193.00;68.97;;;;;;;;;;5072059;28;20499;-54
2023/08/15 02:04:35;;;;;;;192.97;69.33;;;;;;;;;;5072100;28;20463;-55
2023/08/15 02:07:01;;;;;;;191.67;66.87;;;;;;;;;;5072326;28;20416;-51
2023/08/15 02:09:27;;;;;;;195.37;71.07;;;;;;;;;;5072296;28;20408;-50
2023/08/15 02:11:53;;;;;;;195.43;69.77;;;;;;;;;;5071837;28;20456;-55
2023/08/15 02:14:19;;;;;;;193.33;69.27;;;;;;;;;;5072135;28;20465;-56
2023/08/15 02:16:45;;;;;;;189.57;67.53;;;;;;;;;;5072004;28;20794;-57
2023/08/15 02:19:12;;;;;;;189.77;67.63;;;;;;;;;;5071905;28;20431;-56
2023/08/15 02:21:38;;;;;;;186.00;66.07;;;;;;;;;;5071581;28;21055;-56
2023/08/15 02:24:04;;;;;;;191.13;69.67;;;;;;;;;;5072086;28;20408;-55
2023/08/15 02:26:30;;;;;;;189.30;66.80;;;;;;;;;;5072549;28;20500;-57
2023/08/15 02:28:56;;;;;;;189.37;68.57;;;;;;;;;;5071900;28;20469;-56
2023/08/15 02:31:22;;;;;;;189.77;67.97;;;;;;;;;;5071508;28;20428;-56
2023/08/15 02:33:48;;;;;;;189.57;67.17;;;;;;;;;;5071742;28;20412;-55
2023/08/15 02:36:14;;;;;;;191.07;68.43;;;;;;;;;;5071953;28;20408;-57
2023/08/15 02:38:40;;;;;;;189.47;66.97;;;;;;;;;;5071474;28;20407;-57
2023/08/15 02:41:06;;;;;;;191.27;69.07;;;;;;;;;;5071374;28;20503;-57
2023/08/15 02:43:31;;;;;;;188.47;66.33;;;;;;;;;;5071653;28;20900;-57
2023/08/15 02:45:57;;;;;;;188.50;66.00;;;;;;;;;;5071697;28;20416;-56
2023/08/15 02:48:23;;;;;;;194.57;71.27;;;;;;;;;;5071976;28;20503;-57
2023/08/15 02:50:49;;;;;;;188.97;67.60;;;;;;;;;;5071213;28;20432;-56
2023/08/15 02:53:15;;;;;;;186.70;66.40;;;;;;;;;;5071872;28;20436;-57
2023/08/15 02:55:41;;;;;;;184.17;65.13;;;;;;;;;;5071887;28;20416;-57
2023/08/15 02:58:07;;;;;;;187.70;67.57;;;;;;;;;;5071559;28;20404;-56
2023/08/15 03:00:35;;;;;;;185.17;67.73;;;;;;;;;;5071637;28;20407;-56
2023/08/15 03:03:01;;;;;;;183.47;65.07;;;;;;;;;;5071401;28;20499;-57
2023/08/15 03:05:27;;;;;;;187.67;67.87;;;;;;;;;;5071721;28;20469;-57
2023/08/15 03:07:53;;;;;;;188.47;68.07;;;;;;;;;;5071522;28;20966;-57
2023/08/15 03:10:19;;;;;;;187.77;68.20;;;;;;;;;;5071230;28;20923;-57
2023/08/15 03:12:45;;;;;;;185.00;67.17;;;;;;;;;;5071372;28;20453;-56
2023/08/15 03:15:11;;;;;;;182.83;66.93;;;;;;;;;;5071352;28;20459;-57
2023/08/15 03:17:37;;;;;;;183.90;66.93;;;;;;;;;;5071230;28;20417;-57
2023/08/15 03:20:04;;;;;;;182.50;65.63;;;;;;;;;;5071184;28;20427;-57
2023/08/15 03:22:30;;;;;;;181.33;64.33;;;;;;;;;;5071116;28;20468;-55
2023/08/15 03:24:57;;;;;;;183.60;65.07;;;;;;;;;;5071255;28;20483;-57
2023/08/15 03:27:23;;;;;;;189.00;67.97;;;;;;;;;;5071285;28;20413;-57
2023/08/15 03:29:49;;;;;;;189.67;68.83;;;;;;;;;;5071065;28;20465;-57
2023/08/15 03:32:15;;;;;;;189.17;68.73;;;;;;;;;;5070898;28;20460;-56
2023/08/15 03:34:41;;;;;;;190.10;69.33;;;;;;;;;;5071156;28;20408;-56
2023/08/15 03:37:07;;;;;;;189.37;68.60;;;;;;;;;;5071345;28;20408;-56
2023/08/15 03:39:33;;;;;;;188.33;68.40;;;;;;;;;;5071171;28;20465;-57
2023/08/15 03:41:59;;;;;;;188.27;67.87;;;;;;;;;;5070730;28;20462;-56
2023/08/15 03:44:25;;;;;;;187.40;65.80;;;;;;;;;;5071009;28;20412;-56
2023/08/15 03:46:51;;;;;;;188.00;68.17;;;;;;;;;;5071117;28;20474;-56
2023/08/15 03:49:17;;;;;;;186.57;66.73;;;;;;;;;;5071286;28;20423;-56
2023/08/15 03:51:43;;;;;;;186.37;65.97;;;;;;;;;;5074531;28;21013;-55
2023/08/15 03:54:09;;;;;;;186.70;66.83;;;;;;;;;;5074764;28;20793;-54
2023/08/15 03:56:35;;;;;;;185.77;64.97;;;;;;;;;;5074780;28;20408;-56
2023/08/15 03:59:01;;;;;;;188.77;66.73;;;;;;;;;;5074627;28;20834;-54
2023/08/15 04:01:27;;;;;;;191.00;68.03;;;;;;;;;;5072889;28;20460;-55
2023/08/15 04:03:53;;;;;;;190.23;68.07;;;;;;;;;;5074616;28;20764;-54
2023/08/15 04:06:19;;;;;;;188.67;65.87;;;;;;;;;;5069911;28;20828;-54
2023/08/15 04:08:45;;;;;;;190.90;67.90;;;;;;;;;;5077622;28;20401;-55
2023/08/15 04:11:11;;;;;;;190.47;66.03;;;;;;;;;;5076458;28;20424;-54
2023/08/15 04:13:37;;;;;;;191.27;68.30;;;;;;;;;;5074630;28;20422;-54
2023/08/15 04:16:03;;;;;;;189.60;64.87;;;;;;;;;;5074265;28;20405;-55
2023/08/15 04:18:29;;;;;;;187.70;65.83;;;;;;;;;;5073457;28;20893;-54
2023/08/15 04:20:56;;;;;;;186.93;66.23;;;;;;;;;;5074007;28;20431;-55
2023/08/15 04:23:22;;;;;;;185.10;64.20;;;;;;;;;;5074120;28;20864;-54
2023/08/15 04:25:48;;;;;;;185.43;66.17;;;;;;;;;;5074187;28;20447;-54
2023/08/15 04:28:14;;;;;;;187.37;66.27;;;;;;;;;;5074230;28;20459;-54
2023/08/15 04:30:41;;;;;;;185.60;64.97;;;;;;;;;;5073764;28;20417;-54
2023/08/15 04:33:07;;;;;;;187.80;66.50;;;;;;;;;;5074231;28;20907;-54
2023/08/15 04:35:34;;;;;;;187.27;64.90;;;;;;;;;;5074087;28;20768;-53
2023/08/15 04:38:00;;;;;;;186.63;65.80;;;;;;;;;;5074111;28;20422;-54
2023/08/15 04:40:40;;;;;;;186.57;65.97;;;;;;;;;;5073765;28;20880;-54
2023/08/15 04:43:06;;;;;;;187.47;66.47;;;;;;;;;;5073756;28;20447;-54
2023/08/15 04:45:33;;;;;;;186.47;64.33;;;;;;;;;;5073791;28;20408;-54
2023/08/15 04:47:59;;;;;;;184.87;63.93;;;;;;;;;;5072608;28;20496;-54
2023/08/15 04:50:25;;;;;;;187.20;66.67;;;;;;;;;;5073578;28;20515;-54
2023/08/15 04:52:51;;;;;;;186.63;66.17;;;;;;;;;;5073790;28;20906;-54
2023/08/15 04:55:17;;;;;;;183.30;62.03;;;;;;;;;;5072513;28;20420;-53
2023/08/15 04:57:43;;;;;;;185.87;65.90;;;;;;;;;;5073425;28;20408;-54
2023/08/15 05:00:10;;;;;;;184.97;64.87;;;;;;;;;;5077673;28;20976;-54
2023/08/15 05:02:36;;;;;;;183.43;62.27;;;;;;;;;;5073459;28;20505;-55
2023/08/15 05:05:06;;;;;;;184.87;63.63;;;;;;;;;;5073450;28;20405;-55
2023/08/15 05:07:32;;;;;;;184.80;64.40;;;;;;;;;;5073457;28;20443;-54
2023/08/15 05:09:58;;;;;;;187.27;66.37;;;;;;;;;;5073080;28;20416;-54
2023/08/15 05:12:24;;;;;;;187.10;66.57;;;;;;;;;;5073128;28;20428;-55
2023/08/15 05:14:50;;;;;;;183.27;63.57;;;;;;;;;;5073398;28;20404;-55
2023/08/15 05:17:16;;;;;;;184.67;65.10;;;;;;;;;;5073256;28;20405;-54
2023/08/15 05:19:42;;;;;;;187.07;66.30;;;;;;;;;;5073105;28;20447;-54
2023/08/15 05:22:08;;;;;;;187.27;66.30;;;;;;;;;;5073073;28;20546;-55
2023/08/15 05:24:34;;;;;;;184.07;62.73;;;;;;;;;;5072978;28;20404;-53
2023/08/15 05:27:00;;;;;;;183.87;63.10;;;;;;;;;;5072918;28;20411;-55
2023/08/15 05:29:25;;;;;;;184.97;63.87;;;;;;;;;;5073037;28;20405;-54
2023/08/15 05:31:52;;;;;;;186.67;66.23;;;;;;;;;;5072859;28;20456;-55
2023/08/15 05:34:17;;;;;;;183.73;63.73;;;;;;;;;;5072973;28;20400;-54
2023/08/15 05:36:43;;;;;;;183.07;64.10;;;;;;;;;;5072967;28;20440;-55
2023/08/15 05:39:09;;;;;;;184.87;65.00;;;;;;;;;;5072799;28;20417;-55
2023/08/15 05:41:35;;;;;;;186.53;66.00;;;;;;;;;;5072214;28;20464;-55
2023/08/15 05:44:03;;;;;;;185.63;65.27;;;;;;;;;;5072740;28;20439;-55
2023/08/15 05:46:29;;;;;;;185.10;66.50;;;;;;;;;;5072546;28;20918;-55
2023/08/15 05:48:55;;;;;;;186.57;67.00;;;;;;;;;;5072598;28;20499;-55
2023/08/15 05:51:21;;;;;;;186.23;65.77;;;;;;;;;;5072210;28;20476;-54
2023/08/15 05:53:47;;;;;;;185.17;65.33;;;;;;;;;;5065366;28;20397;-54
2023/08/15 05:56:13;;;;;;;187.23;67.23;;;;;;;;;;5072425;28;20820;-55
2023/08/15 05:58:39;;;;;;;186.67;66.37;;;;;;;;;;5072601;28;20930;-56
2023/08/15 06:01:05;;;;;;;181.27;61.63;;;;;;;;;;5072173;28;20451;-55
2023/08/15 06:03:31;;;;;;;185.87;67.17;;;;;;;;;;5072313;28;20495;-55
2023/08/15 06:05:57;;;;;;;184.70;65.30;;;;;;;;;;5072372;28;20409;-55
2023/08/15 06:08:23;;;;;;;187.20;67.50;;;;;;;;;;5070994;28;20408;-55
2023/08/15 06:10:49;;;;;;;186.17;64.97;;;;;;;;;;5071996;28;20420;-55
2023/08/15 06:13:14;;;;;;;186.00;65.23;;;;;;;;;;5071735;28;20779;-56
2023/08/15 06:15:40;;;;;;;187.77;67.40;;;;;;;;;;5072099;28;20413;-55
2023/08/15 06:18:06;;;;;;;189.57;67.90;;;;;;;;;;5072185;28;20416;-56
2023/08/15 06:20:34;;;;;;;186.43;66.97;;;;;;;;;;5071885;28;20428;-55
2023/08/15 06:23:00;;;;;;;186.40;66.07;;;;;;;;;;5071975;28;20444;-55
2023/08/15 06:25:27;;;;;;;189.57;68.70;;;;;;;;;;5070380;28;20459;-55
2023/08/15 06:27:53;;;;;;;185.13;66.07;;;;;;;;;;5078686;28;20451;-55
2023/08/15 06:30:19;;;;;;;186.50;66.97;;;;;;;;;;5071778;28;20754;-55
2023/08/15 06:32:45;;;;;;;186.20;66.03;;;;;;;;;;5071809;28;20516;-55
2023/08/15 06:35:11;;;;;;;188.43;68.23;;;;;;;;;;5071724;28;20408;-55
2023/08/15 06:37:37;;;;;;;186.47;65.67;;;;;;;;;;5071668;28;20771;-55
2023/08/15 06:40:03;;;;;;;187.80;66.10;;;;;;;;;;5071589;28;20409;-55
2023/08/15 06:42:29;;;;;;;184.77;64.83;;;;;;;;;;5071463;28;20467;-55
2023/08/15 06:45:03;;;;;;;184.53;66.07;;;;;;;;;;5071745;28;20509;-55
2023/08/15 06:47:29;;;;;;;184.63;65.17;;;;;;;;;;5071677;28;20824;-56
2023/08/15 06:49:55;;;;;;;186.17;66.63;;;;;;;;;;5071313;28;20429;-55
2023/08/15 06:52:21;;;;;;;185.97;64.83;;;;;;;;;;5071492;28;20990;-55
2023/08/15 06:54:47;;;;;;;185.57;66.87;;;;;;;;;;5071770;28;20923;-55
2023/08/15 06:57:13;;;;;;;186.30;66.87;;;;;;;;;;5071815;28;20908;-55
2023/08/15 06:59:39;;;;;;;187.23;66.40;;;;;;;;;;5071488;28;20900;-55
2023/08/15 07:02:05;;;;;;;184.40;65.40;;;;;;;;;;5071474;28;21007;-56
2023/08/15 07:04:33;;;;;;;188.30;68.13;;;;;;;;;;5071423;28;20431;-55
2023/08/15 07:06:59;;;;;;;186.60;66.83;;;;;;;;;;5071489;28;20525;-56
2023/08/15 07:09:28;;;;;;;188.77;66.77;;;;;;;;;;5071395;28;20416;-56
2023/08/15 07:11:54;;;;;;;185.07;65.13;;;;;;;;;;5071338;28;20428;-56
2023/08/15 07:14:19;;;;;;;187.43;67.63;;;;;;;;;;5071326;28;20411;-55
2023/08/15 07:16:46;;;;;;;187.37;67.30;;;;;;;;;;5071515;28;20496;-55
2023/08/15 07:19:12;;;;;;;185.27;66.23;;;;;;;;;;5071292;28;20417;-56
2023/08/15 07:21:41;;;;;;;184.53;64.03;;;;;;;;;;5064083;28;20541;-56
2023/08/15 07:24:07;;;;;;;184.90;64.70;;;;;;;;;;5069826;28;20478;-55
2023/08/15 07:26:33;;;;;;;186.67;66.53;;;;;;;;;;5075460;28;20826;-56
2023/08/15 07:28:59;;;;;;;184.77;66.13;;;;;;;;;;5075328;28;20400;-56
2023/08/15 07:31:25;;;;;;;186.27;67.00;;;;;;;;;;5074942;28;20427;-56
2023/08/15 07:33:51;;;;;;;186.57;67.37;;;;;;;;;;5075094;28;20454;-56
2023/08/15 07:36:17;;;;;;;185.67;66.33;;;;;;;;;;5075364;28;20491;-55
2023/08/15 07:38:43;;;;;;;187.57;66.23;;;;;;;;;;5075141;28;20818;-56
2023/08/15 07:41:09;;;;;;;185.87;66.27;;;;;;;;;;5080096;28;20424;-56
2023/08/15 07:43:35;;;;;;;187.60;67.87;;;;;;;;;;5074282;28;20782;-55
2023/08/15 07:46:01;;;;;;;186.97;67.13;;;;;;;;;;5075522;28;20888;-56
2023/08/15 07:48:29;;;;;;;187.00;67.87;;;;;;;;;;5074786;28;20416;-55
2023/08/15 07:50:55;;;;;;;186.03;65.27;;;;;;;;;;5074808;28;20769;-56
2023/08/15 07:53:22;;;;;;;189.57;68.97;;;;;;;;;;5074812;28;20400;-56
2023/08/15 07:55:48;;;;;;;185.27;66.80;;;;;;;;;;5074907;28;20411;-56
2023/08/15 07:58:14;;;;;;;186.27;67.07;;;;;;;;;;5074828;28;20417;-56
2023/08/15 08:00:42;;;;;;;185.50;66.57;;;;;;;;;;5074386;28;20769;-56
2023/08/15 08:03:08;;;;;;;184.73;65.33;;;;;;;;;;5074472;28;20754;-56
2023/08/15 08:05:35;;;;;;;185.67;65.17;;;;;;;;;;5074518;28;20419;-56
2023/08/15 08:08:04;;;;;;;186.07;66.90;;;;;;;;;;5074829;28;20827;-56
2023/08/15 08:10:30;;;;;;;187.33;67.87;;;;;;;;;;5070751;28;20416;-56
2023/08/15 08:12:59;;;;;;;187.77;67.30;;;;;;;;;;5072499;28;20432;-53
2023/08/15 08:15:25;;;;;;;183.80;64.73;;;;;;;;;;5074369;28;20987;-56
2023/08/15 08:17:51;;;;;;;187.07;68.33;;;;;;;;;;5069547;28;20412;-56
2023/08/15 08:20:19;;;;;;;185.93;67.07;;;;;;;;;;5074204;28;20416;-54
2023/08/15 08:22:45;;;;;;;187.73;72.63;;;;;;;;;;5074526;28;20460;-56
2023/08/15 08:25:13;;;;;;;186.17;67.43;;;;;;;;;;5073419;28;20412;-53
2023/08/15 08:27:39;;;;;;;187.40;67.57;;;;;;;;;;5074198;28;20404;-54
2023/08/15 08:30:06;;;;;;;188.20;68.73;;;;;;;;;;5073792;28;20419;-56
2023/08/15 08:32:32;;;;;;;189.00;69.03;;;;;;;;;;5074196;28;20810;-54
2023/08/15 08:34:58;;;;;;;185.37;65.27;;;;;;;;;;5072801;28;20942;-53
2023/08/15 08:37:24;;;;;;;186.60;68.27;;;;;;;;;;5072201;28;20424;-55
2023/08/15 08:39:50;;;;;;;192.27;72.13;;;;;;;;;;5073786;28;20417;-53
2023/08/15 08:42:16;;;;;;;186.17;65.83;;;;;;;;;;5073834;28;20539;-55
2023/08/15 08:44:42;;;;;;;189.97;68.90;;;;;;;;;;5071536;28;20439;-54
2023/08/15 08:47:08;;;;;;;186.97;67.03;;;;;;;;;;5073556;28;20452;-55
2023/08/15 08:49:35;;;;;;;188.00;68.83;;;;;;;;;;5073927;28;20451;-55
2023/08/15 08:52:01;;;;;;;187.67;68.00;;;;;;;;;;5073531;28;20440;-55
2023/08/15 08:54:27;;;;;;;187.17;67.90;;;;;;;;;;5073723;28;20470;-53
2023/08/15 08:56:55;;;;;;;190.00;70.10;;;;;;;;;;5073309;28;20815;-55
2023/08/15 08:59:21;;;;;;;188.03;69.27;;;;;;;;;;5087440;28;20413;-53
2023/08/15 09:01:47;;;;;;;187.27;66.63;;;;;;;;;;5093223;28;20455;-53
2023/08/15 09:04:14;;;;;;;189.60;69.30;;;;;;;;;;5073710;28;20406;-56
2023/08/15 09:06:39;;;;;;;190.50;71.43;;;;;;;;;;5073859;28;20410;-56
2023/08/15 09:09:06;;;;;;;189.70;70.73;;;;;;;;;;5073721;28;20401;-53
2023/08/15 09:11:33;;;;;;;191.00;72.07;;;;;;;;;;5073764;28;20424;-55
2023/08/15 09:14:01;;;;;;;189.50;71.47;;;;;;;;;;5073642;28;20950;-53
2023/08/15 09:16:27;;;;;;;190.83;72.43;;;;;;;;;;5093720;28;20778;-55
2023/08/15 09:18:53;;;;;;;187.47;70.07;;;;;;;;;;5093727;28;20498;-54
2023/08/15 09:21:19;;;;;;;190.97;72.23;;;;;;;;;;5093380;28;20439;-54
2023/08/15 09:23:46;;;;;;;188.70;70.83;;;;;;;;;;5093547;28;20764;-53
2023/08/15 09:26:12;;;;;;;189.40;72.53;;;;;;;;;;5093479;28;20467;-53
2023/08/15 09:28:39;;;;;;;190.93;72.63;;;;;;;;;;5093361;28;20493;-54
2023/08/15 09:31:05;;;;;;;186.27;67.93;;;;;;;;;;5093171;28;20433;-53
2023/08/15 09:33:31;;;;;;;189.63;71.73;;;;;;;;;;5093219;28;20403;-53
2023/08/15 09:35:57;;;;;;;189.67;72.03;;;;;;;;;;5093296;28;20494;-54
2023/08/15 09:38:23;;;;;;;190.33;72.83;;;;;;;;;;5093286;28;20426;-53
2023/08/15 09:40:50;;;;;;;193.17;74.43;;;;;;;;;;5093277;28;20407;-54
2023/08/15 09:43:16;;;;;;;190.60;73.80;;;;;;;;;;5093216;28;20459;-53
2023/08/15 09:45:42;;;;;;;191.03;75.03;;;;;;;;;;5093128;28;20448;-55
2023/08/15 09:48:09;;;;;;;194.17;77.93;;;;;;;;;;5093130;28;20450;-53
2023/08/15 09:50:35;;;;;;;192.10;76.70;;;;;;;;;;5091651;28;20515;-54
2023/08/15 09:53:01;;;;;;;191.03;74.73;;;;;;;;;;5072650;28;20416;-54
2023/08/15 09:55:28;;;;;;;191.20;75.50;;;;;;;;;;5072583;28;20843;-54
2023/08/15 09:57:54;;;;;;;189.37;73.20;;;;;;;;;;5072660;28;20461;-54
2023/08/15 10:00:20;;;;;;;187.40;70.53;;;;;;;;;;5072343;28;20420;-54
2023/08/15 10:02:46;;;;;;;190.40;73.63;;;;;;;;;;5072522;28;20541;-53
2023/08/15 10:05:13;;;;;;;191.67;77.70;;;;;;;;;;5072474;28;20848;-53
2023/08/15 10:07:39;;;;;;;191.70;75.07;;;;;;;;;;5072511;28;20483;-56
2023/08/15 10:10:05;;;;;;;190.67;74.60;;;;;;;;;;5072085;28;20405;-55
2023/08/15 10:12:32;;;;;;;192.10;75.90;;;;;;;;;;5072551;28;21005;-53
2023/08/15 10:14:59;;;;;;;192.07;76.70;;;;;;;;;;5072229;28;20397;-54
2023/08/15 10:17:26;;;;;;;190.33;77.00;;;;;;;;;;5070880;28;20470;-53
2023/08/15 10:19:52;;;;;;;197.53;79.47;;;;;;;;;;5071948;28;20403;-55
2023/08/15 10:22:19;;;;;;;192.77;78.33;;;;;;;;;;5072595;28;20820;-56
2023/08/15 10:24:45;;;;;;;191.20;77.40;;;;;;;;;;5071878;28;20476;-56
2023/08/15 10:27:12;;;;;;;193.60;78.77;;;;;;;;;;5072100;28;20432;-57
2023/08/15 10:29:54;;;;;;;193.50;77.97;;;;;;;;;;5072115;28;20823;-56
2023/08/15 10:32:24;;;;;;;189.40;76.37;;;;;;;;;;5072001;28;20424;-56
2023/08/15 10:34:52;;;;;;;192.00;78.43;;;;;;;;;;5072054;28;20404;-56
2023/08/15 10:37:29;;;;;;;195.83;82.87;;;;;;;;;;5071724;28;20400;-56
2023/08/15 10:40:11;;;;;;;194.50;81.20;;;;;;;;;;5071661;28;20491;-56
2023/08/15 10:42:56;;;;;;;193.87;81.17;;;;;;;;;;5071713;28;20615;-56
2023/08/15 10:45:23;;;;;;;192.83;80.00;;;;;;;;;;5071842;28;20442;-56
2023/08/15 10:47:49;;;;;;;195.53;82.17;;;;;;;;;;5071407;28;20841;-56
2023/08/15 10:50:16;;;;;;;197.37;83.40;;;;;;;;;;5069893;28;20908;-57
2023/08/15 10:52:42;;;;;;;192.73;79.20;;;;;;;;;;5076568;28;20440;-56
2023/08/15 10:55:09;;;;;;;191.70;79.50;;;;;;;;;;5071681;28;20414;-56
2023/08/15 10:57:35;;;;;;;191.90;80.20;;;;;;;;;;5070319;28;20423;-57
2023/08/15 11:00:02;;;;;;;191.33;78.73;;;;;;;;;;5070925;28;20407;-56
2023/08/15 11:02:28;;;;;;;190.10;78.47;;;;;;;;;;5070902;28;20455;-55
2023/08/15 11:04:55;;;;;;;191.27;78.70;;;;;;;;;;5071805;28;20392;-57
2023/08/15 11:07:26;;;;;;;192.13;79.37;;;;;;;;;;5071549;28;20401;-56
2023/08/15 11:09:52;;;;;;;195.33;81.47;;;;;;;;;;5051134;28;20397;-56
2023/08/15 11:12:18;;;;;;;190.73;76.97;;;;;;;;;;5051476;28;20452;-55
2023/08/15 11:14:52;;;;;;;189.83;76.67;;;;;;;;;;5051530;28;20429;-57
2023/08/15 11:17:18;;;;;;;192.73;76.37;;;;;;;;;;5051507;28;20779;-55
2023/08/15 11:19:45;;;;;;;193.97;78.97;;;;;;;;;;5051145;28;20401;-56
2023/08/15 11:22:11;;;;;;;192.37;77.97;;;;;;;;;;5050865;28;20816;-56
2023/08/15 11:24:37;;;;;;;193.30;80.73;;;;;;;;;;5051319;28;20888;-56
2023/08/15 11:27:04;;;;;;;193.57;78.53;;;;;;;;;;5051381;28;20451;-55
2023/08/15 11:29:29;;;;;;;192.80;77.20;;;;;;;;;;5051396;28;20844;-57
2023/08/15 11:31:58;;;;;;;191.63;76.40;;;;;;;;;;5050993;28;20471;-57
2023/08/15 11:34:24;;;;;;;189.10;72.53;;;;;;;;;;5051311;28;20407;-57
2023/08/15 11:36:51;;;;;;;190.20;74.50;;;;;;;;;;5051400;28;20413;-57
2023/08/15 11:39:17;;;;;;;192.90;77.03;;;;;;;;;;5051184;28;20870;-55
2023/08/15 11:41:44;;;;;;;190.77;77.33;;;;;;;;;;5050871;28;20471;-56
2023/08/15 11:44:10;;;;;;;190.73;76.77;;;;;;;;;;5051265;28;20397;-57
2023/08/15 11:46:37;;;;;;;190.93;76.90;;;;;;;;;;5051354;28;20405;-57
2023/08/15 11:49:03;;;;;;;192.80;78.60;;;;;;;;;;5051257;28;20393;-57
2023/08/15 11:51:29;;;;;;;189.93;76.33;;;;;;;;;;5059325;28;20497;-56
2023/08/15 11:53:56;;;;;;;189.80;74.83;;;;;;;;;;5070994;28;20816;-55
2023/08/15 11:56:22;;;;;;;192.30;78.50;;;;;;;;;;5071231;28;20745;-57
2023/08/15 11:58:48;;;;;;;190.17;77.37;;;;;;;;;;5071426;28;20400;-56
2023/08/15 12:01:14;;;;;;;192.37;80.00;;;;;;;;;;5070849;28;20893;-57
2023/08/15 12:03:40;;;;;;;190.07;78.27;;;;;;;;;;5070958;28;20554;-56
2023/08/15 12:06:07;;;;;;;190.70;77.90;;;;;;;;;;5071220;28;20392;-57
2023/08/15 12:08:33;;;;;;;193.20;80.07;;;;;;;;;;5070946;28;20407;-57
2023/08/15 12:11:00;;;;;;;191.17;79.00;;;;;;;;;;5071594;28;20416;-57
2023/08/15 12:13:33;;;;;;;192.30;81.27;;;;;;;;;;5074651;28;20408;-56
2023/08/15 12:16:03;;;;;;;191.50;79.50;;;;;;;;;;5074661;28;20443;-56
2023/08/15 12:18:29;;;;;;;192.27;80.27;;;;;;;;;;5074543;28;20412;-57
2023/08/15 12:20:55;;;;;;;191.67;79.57;;;;;;;;;;5074116;28;20800;-56
2023/08/15 12:23:22;;;;;;;191.43;81.57;;;;;;;;;;5074292;28;20547;-57
2023/08/15 12:25:48;;;;;;;191.47;81.00;;;;;;;;;;5074427;28;20392;-56
2023/08/15 12:28:14;;;;;;;191.37;81.40;;;;;;;;;;5074530;28;20941;-56
2023/08/15 12:30:40;;;;;;;189.17;79.27;;;;;;;;;;5074070;28;20446;-56
2023/08/15 12:33:06;;;;;;;190.63;80.17;;;;;;;;;;5073875;28;20440;-55
2023/08/15 12:35:32;;;;;;;191.47;80.43;;;;;;;;;;5074414;28;20444;-57
2023/08/15 12:37:58;;;;;;;191.27;81.07;;;;;;;;;;5074247;28;20412;-57
2023/08/15 12:40:24;;;;;;;190.60;79.63;;;;;;;;;;5074003;28;20458;-57
2023/08/15 12:42:50;;;;;;;191.13;79.50;;;;;;;;;;5074057;28;20456;-57
2023/08/15 12:45:16;;;;;;;189.90;78.67;;;;;;;;;;5074039;28;20477;-56
2023/08/15 12:47:42;;;;;;;192.00;79.27;;;;;;;;;;5073895;28;20414;-57
2023/08/15 12:50:08;;;;;;;190.97;79.73;;;;;;;;;;5073739;28;20503;-57
2023/08/15 12:52:35;;;;;;;191.47;80.13;;;;;;;;;;5091546;28;20428;-56
2023/08/15 12:55:01;;;;;;;190.03;79.53;;;;;;;;;;5094243;28;20396;-56
2023/08/15 12:57:27;;;;;;;189.77;78.60;;;;;;;;;;5094188;28;20892;-56
2023/08/15 12:59:53;;;;;;;195.97;82.93;;;;;;;;;;5093777;28;20402;-56
2023/08/15 13:02:19;;;;;;;190.77;79.23;;;;;;;;;;5093763;28;20443;-56
2023/08/15 13:04:45;;;;;;;189.43;77.77;;;;;;;;;;5093951;28;20495;-56
2023/08/15 13:07:11;;;;;;;190.37;79.90;;;;;;;;;;5093999;28;20487;-57
2023/08/15 13:09:37;;;;;;;189.37;79.40;;;;;;;;;;5093786;28;20482;-55
2023/08/15 13:12:04;;;;;;;190.73;81.20;;;;;;;;;;5093750;28;20438;-56
2023/08/15 13:14:30;;;;;;;189.43;79.13;;;;;;;;;;5093871;28;20938;-56
2023/08/15 13:16:58;;;;;;;191.03;80.97;;;;;;;;;;5093657;28;20475;-57
2023/08/15 13:19:24;;;;;;;192.27;82.30;;;;;;;;;;5093673;28;20399;-56
2023/08/15 13:21:50;;;;;;;188.83;79.93;;;;;;;;;;5093019;28;20455;-57
2023/08/15 13:24:16;;;;;;;191.87;79.83;;;;;;;;;;5093661;28;20730;-57
2023/08/15 13:26:42;;;;;;;192.13;83.20;;;;;;;;;;5093605;28;20741;-56
2023/08/15 13:29:08;;;;;;;192.10;83.13;;;;;;;;;;5093534;28;20404;-57
2023/08/15 13:31:34;;;;;;;190.30;79.73;;;;;;;;;;5092930;28;20510;-57
2023/08/15 13:34:00;;;;;;;190.50;79.10;;;;;;;;;;5093367;28;20412;-57
2023/08/15 13:36:26;;;;;;;189.73;78.20;;;;;;;;;;5093412;28;20769;-56
2023/08/15 13:38:51;;;;;;;192.47;81.87;;;;;;;;;;5093320;28;20400;-56
2023/08/15 13:41:17;;;;;;;189.80;77.27;;;;;;;;;;5081156;28;20726;-56
2023/08/15 13:43:44;;;;;;;191.60;78.17;;;;;;;;;;5065804;28;20467;-57
2023/08/15 13:46:11;;;;;;;190.90;79.83;;;;;;;;;;5072811;28;20481;-56
2023/08/15 13:48:40;;;;;;;191.73;78.63;;;;;;;;;;5072800;28;20487;-56
2023/08/15 13:51:15;;;;;;;189.63;76.77;;;;;;;;;;5077364;28;20865;-56
2023/08/15 13:53:41;;;;;;;191.00;77.77;;;;;;;;;;5088696;28;20491;-56
2023/08/15 13:56:07;;;;;;;192.87;78.87;;;;;;;;;;5072846;28;20443;-56
2023/08/15 13:58:33;;;;;;;191.50;77.07;;;;;;;;;;5071079;28;20408;-56
2023/08/15 14:00:59;;;;;;;190.80;77.83;;;;;;;;;;5071176;28;20503;-56